Time;durP1;ratioP1;P1;durP2;ratioP2;P2;SDS_P1;SDS_P2;PMS_P1;PMS_P2;Temp;Humidity;BMP_temperature;BMP_pressure;BME280_temperature;BME280_humidity;BME280_pressure;Samples;Min_cycle;Max_cycle;Signal;HPM_P1;HPM_P2
2022/11/08 00:01:34;;;;;;;0.38;0.20;;;12.10;99.90;;;;;;5070843;28;20060;-74
2022/11/08 00:04:06;;;;;;;0.00;0.00;;;12.20;99.90;;;;;;5069983;28;20052;-76
2022/11/08 00:14:45;;;;;;;0.10;0.10;;;12.10;99.90;;;;;;5069021;28;20105;-73
2022/11/08 00:17:13;;;;;;;0.15;0.15;;;12.10;99.90;;;;;;5070719;28;20139;-75
2022/11/08 00:19:40;;;;;;;0.35;0.35;;;12.10;99.90;;;;;;5070071;28;20048;-74
2022/11/08 00:22:05;;;;;;;0.75;0.35;;;12.10;99.90;;;;;;5052689;28;20122;-75
2022/11/08 00:24:31;;;;;;;0.35;0.32;;;12.20;99.90;;;;;;5069328;28;20044;-75
2022/11/08 00:26:57;;;;;;;0.98;0.55;;;12.20;99.90;;;;;;5068803;28;20053;-74
2022/11/08 00:29:22;;;;;;;0.45;0.45;;;12.30;99.90;;;;;;5050830;28;20068;-75
2022/11/08 00:31:48;;;;;;;0.00;0.00;;;12.30;99.90;;;;;;5048878;28;20051;-74
2022/11/08 00:34:14;;;;;;;0.38;0.38;;;12.20;99.90;;;;;;5048589;28;20124;-75
2022/11/08 00:36:39;;;;;;;0.00;0.00;;;12.20;99.90;;;;;;5049824;28;20044;-76
2022/11/08 00:39:05;;;;;;;0.30;0.20;;;12.20;99.90;;;;;;5067168;28;20443;-74
2022/11/08 00:41:30;;;;;;;1.55;0.30;;;12.20;99.90;;;;;;5068448;28;20044;-76
2022/11/08 00:43:56;;;;;;;5.85;0.75;;;12.20;99.90;;;;;;5067746;28;20486;-75
2022/11/08 00:46:22;;;;;;;0.28;0.28;;;12.10;99.90;;;;;;5051665;28;20052;-75
2022/11/08 00:48:47;;;;;;;0.32;0.32;;;12.10;99.90;;;;;;5070830;28;20401;-74
2022/11/08 00:51:13;;;;;;;1.65;0.85;;;12.10;99.90;;;;;;5070760;28;20060;-75
2022/11/08 00:53:39;;;;;;;0.00;0.00;;;12.00;99.90;;;;;;5070853;28;21036;-76
2022/11/08 00:56:09;;;;;;;0.63;0.63;;;12.00;99.90;;;;;;5072869;28;20076;-76
2022/11/08 00:58:34;;;;;;;0.22;0.22;;;12.00;99.90;;;;;;5071996;28;20044;-75
2022/11/08 01:01:06;;;;;;;0.10;0.00;;;12.00;99.90;;;;;;5073802;28;20098;-73
2022/11/08 01:03:32;;;;;;;0.20;0.20;;;12.00;99.90;;;;;;5074643;28;20103;-75
2022/11/08 01:06:04;;;;;;;0.00;0.00;;;12.00;99.90;;;;;;5072841;28;20661;-74
2022/11/08 01:08:30;;;;;;;0.00;0.00;;;12.00;99.90;;;;;;5073053;28;20040;-76
2022/11/08 01:10:56;;;;;;;0.32;0.17;;;12.00;99.90;;;;;;5073449;28;20051;-75
2022/11/08 01:13:22;;;;;;;0.00;0.00;;;12.00;99.90;;;;;;5072728;28;20079;-74
2022/11/08 01:15:47;;;;;;;0.15;0.15;;;11.90;99.90;;;;;;5072587;28;20049;-75
2022/11/08 01:18:15;;;;;;;0.52;0.52;;;11.80;99.90;;;;;;5071788;28;20044;-75
2022/11/08 01:20:42;;;;;;;2.75;0.95;;;11.60;99.90;;;;;;5056531;28;20235;-74
2022/11/08 01:23:09;;;;;;;0.47;0.45;;;11.50;99.90;;;;;;5056675;28;20039;-76
2022/11/08 01:25:40;;;;;;;0.68;0.40;;;11.40;99.90;;;;;;5072036;28;20051;-75
2022/11/08 01:28:06;;;;;;;0.05;0.05;;;11.50;99.90;;;;;;5072080;28;20550;-75
2022/11/08 01:30:39;;;;;;;0.20;0.10;;;11.50;99.90;;;;;;5071140;28;20384;-74
2022/11/08 01:33:05;;;;;;;0.25;0.20;;;11.40;99.90;;;;;;5071711;28;20629;-76
2022/11/08 01:35:32;;;;;;;0.15;0.15;;;11.40;99.90;;;;;;5071104;28;20040;-75
2022/11/08 01:38:01;;;;;;;0.20;0.20;;;11.30;99.90;;;;;;5065083;28;20036;-75
2022/11/08 01:40:28;;;;;;;0.32;0.32;;;11.40;99.90;;;;;;5051449;28;20052;-74
2022/11/08 01:42:54;;;;;;;0.00;0.00;;;11.40;99.90;;;;;;5051241;28;20572;-75
2022/11/08 01:45:57;;;;;;;0.10;0.10;;;11.20;99.90;;;;;;5051980;28;20406;-75
2022/11/08 01:48:25;;;;;;;0.00;0.00;;;11.20;99.90;;;;;;5065971;28;20044;-75
2022/11/08 01:50:52;;;;;;;2.13;0.93;;;11.30;99.90;;;;;;5070839;28;20060;-75
2022/11/08 01:53:18;;;;;;;4.13;0.52;;;11.40;99.90;;;;;;5071442;28;20056;-74
2022/11/08 01:55:45;;;;;;;2.65;1.27;;;11.40;99.90;;;;;;5053844;28;20048;-74
2022/11/08 01:58:23;;;;;;;0.00;0.00;;;11.50;99.90;;;;;;5065892;28;20092;-75
2022/11/08 02:00:50;;;;;;;0.32;0.22;;;11.50;99.90;;;;;;5050690;28;20503;-74
2022/11/08 02:03:18;;;;;;;0.00;0.00;;;11.60;99.90;;;;;;5051696;28;20041;-76
2022/11/08 02:05:45;;;;;;;0.10;0.05;;;11.50;99.90;;;;;;5051023;28;20040;-75
2022/11/08 02:08:36;;;;;;;0.05;0.03;;;11.50;99.90;;;;;;5051089;28;20071;-75
2022/11/08 02:11:03;;;;;;;0.20;0.20;;;11.30;99.90;;;;;;5050932;28;20077;-76
2022/11/08 02:13:32;;;;;;;0.75;0.60;;;11.20;99.90;;;;;;5050659;28;20049;-76
2022/11/08 02:15:57;;;;;;;1.55;0.80;;;11.10;99.90;;;;;;5050461;28;20041;-75
2022/11/08 02:18:27;;;;;;;0.40;0.35;;;11.00;99.90;;;;;;5055883;28;20519;-75
2022/11/08 02:21:01;;;;;;;0.00;0.00;;;11.20;99.90;;;;;;5070082;28;20056;-74
2022/11/08 02:23:48;;;;;;;0.00;0.00;;;11.20;99.90;;;;;;5069618;28;20044;-74
2022/11/08 02:26:14;;;;;;;;;;;11.20;99.90;;;;;;5052509;28;20063;-74
2022/11/08 02:28:46;;;;;;;18.85;1.38;;;11.20;99.90;;;;;;5069458;28;19997;-74
2022/11/08 02:31:13;;;;;;;0.22;0.13;;;11.10;99.90;;;;;;5069210;28;20059;-74
2022/11/08 02:33:39;;;;;;;1.65;0.30;;;11.00;99.90;;;;;;5069549;28;20048;-76
2022/11/08 02:36:07;;;;;;;0.25;0.20;;;11.20;99.90;;;;;;5070149;28;20494;-76
2022/11/08 02:38:37;;;;;;;0.00;0.00;;;10.90;99.90;;;;;;5069143;28;20473;-75
2022/11/08 02:41:04;;;;;;;0.20;0.20;;;11.00;99.90;;;;;;5068863;28;20510;-74
2022/11/08 02:43:29;;;;;;;0.10;0.10;;;11.10;99.90;;;;;;5069113;28;20045;-74
2022/11/08 02:45:57;;;;;;;0.75;0.65;;;11.00;99.90;;;;;;5069171;28;20055;-73
2022/11/08 02:48:22;;;;;;;0.52;0.38;;;10.90;99.90;;;;;;5050970;28;20059;-74
2022/11/08 02:50:48;;;;;;;1.27;0.85;;;10.90;99.90;;;;;;5068841;28;20433;-74
2022/11/08 02:53:14;;;;;;;0.63;0.43;;;10.90;99.90;;;;;;5068615;28;20427;-74
2022/11/08 02:55:40;;;;;;;0.00;0.00;;;10.80;99.90;;;;;;5069110;28;20173;-73
2022/11/08 02:58:06;;;;;;;0.00;0.00;;;10.80;99.90;;;;;;5054278;28;20064;-73
2022/11/08 03:00:32;;;;;;;0.13;0.13;;;10.70;99.90;;;;;;5049019;28;20041;-73
2022/11/08 03:02:58;;;;;;;0.10;0.10;;;10.70;99.90;;;;;;5048957;28;20048;-74
2022/11/08 03:05:25;;;;;;;0.70;0.50;;;10.70;99.90;;;;;;5048478;28;20045;-74
2022/11/08 03:07:52;;;;;;;1.00;0.73;;;10.80;99.90;;;;;;5049047;28;20049;-73
2022/11/08 03:10:18;;;;;;;3.25;1.45;;;10.70;99.90;;;;;;5047950;28;20052;-73
2022/11/08 03:12:44;;;;;;;0.00;0.00;;;10.70;99.90;;;;;;5068958;28;20468;-75
2022/11/08 03:15:12;;;;;;;1.00;0.60;;;10.70;99.90;;;;;;5068330;28;20051;-74
2022/11/08 03:17:37;;;;;;;0.85;0.80;;;10.70;99.90;;;;;;5068460;28;20375;-74
2022/11/08 03:20:04;;;;;;;0.10;0.10;;;10.60;99.90;;;;;;5069014;28;20066;-75
2022/11/08 03:22:30;;;;;;;0.00;0.00;;;10.60;99.90;;;;;;5068483;28;20147;-73
2022/11/08 03:24:55;;;;;;;3.38;0.68;;;10.70;99.90;;;;;;5067984;28;20071;-75
2022/11/08 03:27:21;;;;;;;0.05;0.05;;;10.70;99.90;;;;;;5069314;28;20037;-73
2022/11/08 03:29:47;;;;;;;0.98;0.45;;;10.70;99.90;;;;;;5066933;28;20040;-76
2022/11/08 03:32:14;;;;;;;0.00;0.00;;;10.60;99.90;;;;;;5068917;28;20051;-75
2022/11/08 03:34:41;;;;;;;0.00;0.00;;;10.60;99.90;;;;;;5067697;28;20067;-74
2022/11/08 03:37:09;;;;;;;0.95;0.90;;;10.60;99.90;;;;;;5068484;28;20052;-75
2022/11/08 03:39:35;;;;;;;0.10;0.10;;;10.80;99.90;;;;;;5067650;28;20048;-76
2022/11/08 03:42:03;;;;;;;0.90;0.90;;;10.80;99.90;;;;;;5068675;28;20054;-77
2022/11/08 03:44:30;;;;;;;0.57;0.57;;;10.80;99.90;;;;;;5068830;28;20079;-74
2022/11/08 03:46:55;;;;;;;0.30;0.30;;;10.80;99.90;;;;;;5068145;28;20082;-75
2022/11/08 03:49:21;;;;;;;0.00;0.00;;;10.90;99.90;;;;;;5067558;28;20040;-76
2022/11/08 03:51:46;;;;;;;0.10;0.10;;;10.90;99.90;;;;;;5067470;28;20149;-74
2022/11/08 03:54:12;;;;;;;0.00;0.00;;;10.90;99.90;;;;;;5065930;28;20101;-73
2022/11/08 03:56:38;;;;;;;0.03;0.03;;;10.80;99.90;;;;;;5066966;28;20044;-76
2022/11/08 03:59:03;;;;;;;0.00;0.00;;;10.80;99.90;;;;;;5067220;28;20056;-74
2022/11/08 04:01:29;;;;;;;0.10;0.10;;;10.70;99.90;;;;;;5067742;28;20124;-72
2022/11/08 04:03:55;;;;;;;0.17;0.17;;;10.60;99.90;;;;;;5067800;28;20068;-74
2022/11/08 04:06:20;;;;;;;0.10;0.10;;;10.60;99.90;;;;;;5067746;28;20044;-73
2022/11/08 04:08:46;;;;;;;0.40;0.32;;;10.60;99.90;;;;;;5062566;28;20048;-73
2022/11/08 04:16:40;;;;;;;0.00;0.00;;;10.50;99.90;;;;;;5047100;28;20087;-75
2022/11/08 04:21:52;;;;;;;0.28;0.28;;;10.50;99.90;;;;;;5049624;28;20052;-76
2022/11/08 04:24:18;;;;;;;0.00;0.00;;;10.50;99.90;;;;;;5051770;28;20095;-73
2022/11/08 04:26:43;;;;;;;0.32;0.32;;;10.50;99.90;;;;;;5051591;28;20044;-74
2022/11/08 04:29:10;;;;;;;0.20;0.20;;;10.40;99.90;;;;;;5057674;28;20044;-74
2022/11/08 04:31:35;;;;;;;1.40;0.93;;;10.30;99.90;;;;;;5071579;28;20539;-74
2022/11/08 04:34:01;;;;;;;0.00;0.00;;;10.40;99.90;;;;;;5072956;28;20045;-75
2022/11/08 04:36:27;;;;;;;0.00;0.00;;;10.50;99.90;;;;;;5070994;28;20101;-73
2022/11/08 04:38:53;;;;;;;0.20;0.20;;;10.50;99.90;;;;;;5067209;28;20535;-75
2022/11/08 04:41:21;;;;;;;0.32;0.20;;;10.40;99.90;;;;;;5050019;28;20112;-73
2022/11/08 04:43:48;;;;;;;1.02;0.45;;;10.50;99.90;;;;;;5051039;28;20260;-76
2022/11/08 04:46:20;;;;;;;30.35;2.92;;;11.60;99.90;;;;;;5052069;28;20056;-75
2022/11/08 04:48:46;;;;;;;0.28;0.28;;;10.50;99.90;;;;;;5054815;28;20578;-74
2022/11/08 04:51:17;;;;;;;12.95;0.57;;;10.60;99.90;;;;;;5069833;28;20464;-73
2022/11/08 04:53:43;;;;;;;0.57;0.57;;;10.70;99.90;;;;;;5071859;28;20058;-75
2022/11/08 04:56:18;;;;;;;2.45;0.30;;;10.90;99.90;;;;;;5071964;28;20044;-74
2022/11/08 04:59:03;;;;;;;0.00;0.00;;;10.90;99.90;;;;;;5071429;28;20055;-73
2022/11/08 05:01:30;;;;;;;0.00;0.00;;;10.80;99.90;;;;;;5035605;28;20044;-74
2022/11/08 05:03:56;;;;;;;0.10;0.10;;;10.80;99.90;;;;;;5057763;28;20045;-74
2022/11/08 05:06:25;;;;;;;0.00;0.00;;;10.70;99.90;;;;;;5069783;28;20597;-72
2022/11/08 05:08:53;;;;;;;0.08;0.08;;;10.70;99.90;;;;;;5070347;28;20495;-74
2022/11/08 05:11:21;;;;;;;0.30;0.22;;;10.60;99.90;;;;;;5052149;28;20044;-74
2022/11/08 05:13:48;;;;;;;0.10;0.10;;;10.50;99.90;;;;;;5071027;28;20491;-74
2022/11/08 05:16:28;;;;;;;0.10;0.10;;;10.50;99.90;;;;;;5070560;28;20059;-74
2022/11/08 05:18:55;;;;;;;1.08;0.40;;;10.50;99.90;;;;;;5069036;28;20055;-74
2022/11/08 05:24:08;;;;;;;0.15;0.15;;;10.50;99.90;;;;;;5059463;28;20085;-75
2022/11/08 05:26:36;;;;;;;0.47;0.47;;;10.50;99.90;;;;;;5058516;28;20051;-75
2022/11/08 05:29:03;;;;;;;0.00;0.00;;;10.50;99.90;;;;;;5042769;28;20045;-74
2022/11/08 05:31:29;;;;;;;0.10;0.10;;;10.40;99.90;;;;;;5064372;28;20048;-75
2022/11/08 05:33:55;;;;;;;0.00;0.00;;;10.40;99.90;;;;;;5070931;28;20460;-72
2022/11/08 05:36:20;;;;;;;0.00;0.00;;;10.50;99.90;;;;;;5067953;28;20048;-74
2022/11/08 05:38:46;;;;;;;2.38;0.38;;;10.50;99.90;;;;;;5068589;28;20056;-76
2022/11/08 05:41:17;;;;;;;0.08;0.08;;;10.40;99.90;;;;;;5051211;28;20080;-75
2022/11/08 05:43:45;;;;;;;1.85;0.60;;;10.50;99.90;;;;;;5049809;28;20051;-75
2022/11/08 05:46:11;;;;;;;2.90;0.63;;;10.40;99.90;;;;;;5051741;28;20064;-75
2022/11/08 05:48:36;;;;;;;0.80;0.28;;;10.50;99.90;;;;;;5049453;28;20048;-74
2022/11/08 05:51:03;;;;;;;5.53;2.08;;;10.50;99.90;;;;;;5050072;28;20069;-73
2022/11/08 05:53:29;;;;;;;0.00;0.00;;;10.40;99.90;;;;;;5049738;28;20049;-74
2022/11/08 05:56:02;;;;;;;0.57;0.55;;;10.40;99.90;;;;;;5048299;28;20049;-74
2022/11/08 05:58:29;;;;;;;0.10;0.10;;;10.30;99.90;;;;;;5047247;28;20041;-74
2022/11/08 06:01:04;;;;;;;0.20;0.20;;;10.40;99.90;;;;;;5048404;28;20063;-74
2022/11/08 06:03:30;;;;;;;1.13;0.63;;;10.40;99.90;;;;;;5068113;28;20124;-73
2022/11/08 06:06:07;;;;;;;0.30;0.22;;;10.50;97.90;;;;;;5066244;28;20047;-74
2022/11/08 06:08:33;;;;;;;0.00;0.00;;;10.40;99.90;;;;;;5047295;28;20080;-74
2022/11/08 06:11:08;;;;;;;0.25;0.22;;;10.30;99.90;;;;;;5046803;28;20076;-76
2022/11/08 06:13:34;;;;;;;0.10;0.10;;;10.30;99.90;;;;;;5046112;28;20076;-76
2022/11/08 06:16:04;;;;;;;0.10;0.10;;;10.20;99.90;;;;;;5029013;28;20041;-75
2022/11/08 06:18:31;;;;;;;1.00;0.38;;;10.20;99.90;;;;;;5046811;28;20049;-75
2022/11/08 06:20:58;;;;;;;0.20;0.13;;;10.20;99.90;;;;;;5029756;28;20132;-75
2022/11/08 06:23:24;;;;;;;0.00;0.00;;;10.20;99.90;;;;;;5047090;28;20041;-73
2022/11/08 06:25:49;;;;;;;0.60;0.20;;;10.10;99.90;;;;;;5059600;28;20060;-75
2022/11/08 06:28:15;;;;;;;0.00;0.00;;;10.10;99.90;;;;;;5049272;28;20052;-74
2022/11/08 06:30:41;;;;;;;0.17;0.10;;;10.10;99.90;;;;;;5069090;28;20049;-73
2022/11/08 06:33:06;;;;;;;0.05;0.05;;;10.10;99.90;;;;;;5068423;28;20047;-75
2022/11/08 06:35:32;;;;;;;1.20;0.60;;;10.10;99.90;;;;;;5068690;28;20048;-73
2022/11/08 06:37:58;;;;;;;0.20;0.20;;;10.20;99.90;;;;;;5068465;28;20487;-73
2022/11/08 06:40:23;;;;;;;0.57;0.57;;;10.30;52.80;;;;;;5068919;28;20103;-74
2022/11/08 06:42:49;;;;;;;2.17;0.35;;;10.30;62.10;;;;;;5068567;28;20395;-74
2022/11/08 06:45:14;;;;;;;0.00;0.00;;;10.40;10.50;;;;;;5067110;28;20049;-73
2022/11/08 06:47:40;;;;;;;0.30;0.30;;;10.50;1.00;;;;;;5047706;28;20053;-73
2022/11/08 06:50:06;;;;;;;0.00;0.00;;;10.50;1.00;;;;;;5065848;28;20143;-75
2022/11/08 06:52:32;;;;;;;0.00;0.00;;;10.40;1.00;;;;;;5065283;28;20673;-74
2022/11/08 06:54:57;;;;;;;0.20;0.10;;;10.40;1.00;;;;;;5064481;28;20422;-73
2022/11/08 06:57:23;;;;;;;0.10;0.10;;;10.40;1.00;;;;;;5067294;28;20048;-73
2022/11/08 06:59:48;;;;;;;0.00;0.00;;;10.40;1.00;;;;;;5066876;28;20445;-73
2022/11/08 07:02:14;;;;;;;0.22;0.22;;;10.50;1.00;;;;;;5067603;28;20048;-73
2022/11/08 07:04:40;;;;;;;0.17;0.17;;;10.60;1.00;;;;;;5065521;28;20371;-75
2022/11/08 07:07:05;;;;;;;0.08;0.08;;;10.60;1.00;;;;;;5051214;28;20110;-74
2022/11/08 07:09:31;;;;;;;0.15;0.15;;;10.60;99.90;;;;;;5044914;28;20530;-75
2022/11/08 07:11:57;;;;;;;1.33;0.52;;;11.70;1.00;;;;;;5046692;28;20043;-73
2022/11/08 07:14:22;;;;;;;0.00;0.00;;;10.70;99.90;;;;;;5029132;28;20060;-75
2022/11/08 07:16:48;;;;;;;0.00;0.00;;;10.70;99.90;;;;;;5046588;28;20045;-75
2022/11/08 07:19:14;;;;;;;1.17;0.40;;;10.80;99.90;;;;;;5047628;28;20218;-74
2022/11/08 07:21:40;;;;;;;0.00;0.00;;;10.80;99.90;;;;;;5046243;28;20041;-75
2022/11/08 07:24:05;;;;;;;1.40;0.75;;;11.10;99.90;;;;;;5046805;28;20037;-75
2022/11/08 07:26:31;;;;;;;0.00;0.00;;;10.90;99.90;;;;;;5047438;28;20052;-74
2022/11/08 07:28:57;;;;;;;0.10;0.10;;;11.10;6.90;;;;;;5048737;28;20041;-73
2022/11/08 07:31:23;;;;;;;1.65;0.63;;;11.10;13.70;;;;;;5029659;28;20053;-73
2022/11/08 07:33:49;;;;;;;0.00;0.00;;;11.10;1.00;;;;;;5044547;28;20071;-74
2022/11/08 07:36:14;;;;;;;0.22;0.20;;;11.20;1.00;;;;;;5040939;28;20099;-73
2022/11/08 07:41:15;;;;;;;6.90;0.40;;;11.30;99.90;;;;;;5601629;22;20057;-86
2022/11/08 07:43:41;;;;;;;5.57;1.75;;;11.30;99.90;;;;;;5029842;28;20026;-85
2022/11/08 07:46:07;;;;;;;0.25;0.05;;;11.30;99.90;;;;;;5042874;28;20088;-86
2022/11/08 07:48:35;;;;;;;0.20;0.20;;;11.90;99.90;;;;;;5027882;28;20045;-86
2022/11/08 07:51:00;;;;;;;0.10;0.10;;;11.40;99.90;;;;;;5065562;28;20037;-86
2022/11/08 07:53:26;;;;;;;4.05;1.45;;;11.30;99.90;;;;;;5050960;28;20098;-87
2022/11/08 07:55:53;;;;;;;0.73;0.70;;;12.10;99.90;;;;;;5050013;28;20127;-87
2022/11/08 07:58:19;;;;;;;0.47;0.43;;;11.60;1.00;;;;;;5049425;28;20087;-86
2022/11/08 08:00:48;;;;;;;0.30;0.20;;;11.70;1.00;;;;;;5066879;28;20036;-86
2022/11/08 08:03:14;;;;;;;0.22;0.22;;;11.80;99.90;;;;;;5050334;28;20102;-85
2022/11/08 08:05:44;;;;;;;0.00;0.00;;;12.40;99.90;;;;;;5047350;28;20029;-87
2022/11/08 08:08:12;;;;;;;1.23;1.13;;;11.90;99.90;;;;;;5028475;28;20105;-87
2022/11/08 08:10:38;;;;;;;2.03;0.32;;;11.80;99.90;;;;;;5030671;28;20034;-85
2022/11/08 08:13:05;;;;;;;3.83;0.95;;;11.90;99.90;;;;;;5031355;28;20060;-86
2022/11/08 08:15:31;;;;;;;4.70;1.35;;;11.90;99.90;;;;;;5014140;28;20117;-85
2022/11/08 08:17:59;;;;;;;0.00;0.00;;;12.00;40.30;;;;;;5031328;28;20109;-86
2022/11/08 08:20:25;;;;;;;0.30;0.30;;;12.80;99.90;;;;;;5047654;28;20121;-86
2022/11/08 08:22:51;;;;;;;0.00;0.00;;;12.00;69.00;;;;;;5029899;28;20057;-86
2022/11/08 08:25:17;;;;;;;0.00;0.00;;;12.80;1.00;;;;;;5029373;28;20050;-86
2022/11/08 08:27:54;;;;;;;2.20;0.95;;;12.10;1.00;;;;;;5028375;28;20076;-85
2022/11/08 08:30:21;;;;;;;0.38;0.35;;;12.10;1.00;;;;;;5044385;28;20057;-86
2022/11/08 08:32:48;;;;;;;0.10;0.10;;;12.60;1.00;;;;;;5013426;28;20051;-85
2022/11/08 08:35:14;;;;;;;0.05;0.05;;;12.20;1.00;;;;;;5044648;28;20418;-86
2022/11/08 08:37:40;;;;;;;0.20;0.17;;;12.20;99.90;;;;;;5026799;28;20116;-86
2022/11/08 08:40:09;;;;;;;0.20;0.20;;;13.30;99.90;;;;;;5027626;28;20116;-86
2022/11/08 08:42:35;;;;;;;0.28;0.25;;;12.20;99.90;;;;;;5042755;28;20121;-86
2022/11/08 08:45:01;;;;;;;0.15;0.15;;;11.90;99.90;;;;;;5027873;28;20045;-85
2022/11/08 08:47:27;;;;;;;0.20;0.20;;;12.30;99.90;;;;;;5025694;28;20045;-86
2022/11/08 08:49:53;;;;;;;0.30;0.30;;;12.90;99.90;;;;;;5046626;28;20076;-86
2022/11/08 08:52:19;;;;;;;0.47;0.38;;;13.30;99.90;;;;;;5026073;28;20049;-86
2022/11/08 08:54:45;;;;;;;0.20;0.20;;;13.20;99.90;;;;;;5024949;28;20166;-85
2022/11/08 08:57:10;;;;;;;0.03;0.03;;;12.50;99.90;;;;;;5043184;28;20049;-86
2022/11/08 08:59:36;;;;;;;0.00;0.00;;;13.50;99.90;;;;;;5044116;28;20053;-86
2022/11/08 09:02:02;;;;;;;0.10;0.10;;;13.30;14.10;;;;;;5010706;28;20073;-84
2022/11/08 09:04:28;;;;;;;0.00;0.00;;;13.70;99.90;;;;;;5015794;28;20038;-85
2022/11/08 09:06:54;;;;;;;0.10;0.10;;;12.90;1.00;;;;;;5033128;28;20029;-86
2022/11/08 09:09:20;;;;;;;0.00;0.00;;;13.00;1.00;;;;;;5036109;28;20041;-85
2022/11/08 09:11:46;;;;;;;0.35;0.10;;;13.00;99.90;;;;;;5045990;28;20081;-85
2022/11/08 09:14:12;;;;;;;0.00;0.00;;;12.30;1.00;;;;;;5031427;28;20506;-85
2022/11/08 09:16:37;;;;;;;0.00;0.00;;;13.10;1.00;;;;;;5052579;28;20033;-87
2022/11/08 09:19:03;;;;;;;0.00;0.00;;;13.50;1.00;;;;;;5052923;28;20057;-85
2022/11/08 09:21:29;;;;;;;0.00;0.00;;;14.30;99.90;;;;;;5046701;28;20081;-84
2022/11/08 09:23:55;;;;;;;0.00;0.00;;;13.90;99.90;;;;;;5028749;28;20089;-85
2022/11/08 09:26:21;;;;;;;0.08;0.08;;;13.60;93.80;;;;;;5044537;28;20069;-85
2022/11/08 09:28:46;;;;;;;0.03;0.03;;;14.10;95.60;;;;;;5026262;28;20104;-85
2022/11/08 09:31:12;;;;;;;1.38;0.75;;;14.60;1.00;;;;;;5027147;28;20111;-86
2022/11/08 09:33:39;;;;;;;3.20;1.25;;;13.80;1.00;;;;;;5029515;28;20057;-86
2022/11/08 09:36:06;;;;;;;0.80;0.73;;;13.90;1.00;;;;;;5045326;28;20045;-86
2022/11/08 09:38:33;;;;;;;0.00;0.00;;;13.90;1.00;;;;;;5044579;28;20084;-85
2022/11/08 09:41:04;;;;;;;2.75;1.13;;;15.00;1.00;;;;;;5043159;28;20148;-84
2022/11/08 09:43:39;;;;;;;0.20;0.20;;;14.40;99.90;;;;;;5046288;28;20085;-85
2022/11/08 09:46:09;;;;;;;0.60;0.35;;;14.30;99.90;;;;;;5044636;28;20079;-85
2022/11/08 09:48:37;;;;;;;0.00;0.00;;;14.20;99.90;;;;;;5045485;28;20064;-85
2022/11/08 09:51:08;;;;;;;0.00;0.00;;;14.90;99.90;;;;;;5043171;28;20057;-85
2022/11/08 09:53:49;;;;;;;0.38;0.35;;;15.20;99.90;;;;;;5043434;28;20040;-86
2022/11/08 09:56:23;;;;;;;0.38;0.32;;;14.50;99.90;;;;;;5042719;28;20060;-85
2022/11/08 09:59:00;;;;;;;0.00;0.00;;;14.80;99.90;;;;;;5024773;28;20080;-85
2022/11/08 10:01:30;;;;;;;0.00;0.00;;;14.80;72.80;;;;;;5044702;28;20478;-85
2022/11/08 10:04:05;;;;;;;0.08;0.08;;;14.50;76.10;;;;;;5025534;28;20049;-85
2022/11/08 10:06:48;;;;;;;0.00;0.00;;;14.50;80.20;;;;;;5043736;28;20057;-85
2022/11/08 10:09:29;;;;;;;0.00;0.00;;;14.60;19.30;;;;;;5026218;28;20115;-85
2022/11/08 10:12:16;;;;;;;0.00;0.00;;;14.50;99.90;;;;;;5044913;28;20084;-85
2022/11/08 10:14:51;;;;;;;0.00;0.00;;;14.60;3.40;;;;;;5043192;28;20049;-85
2022/11/08 10:17:54;;;;;;;0.00;0.00;;;15.50;86.00;;;;;;5042918;28;20065;-84
2022/11/08 10:20:31;;;;;;;0.38;0.25;;;14.70;31.80;;;;;;5022664;28;20064;-84
2022/11/08 10:23:21;;;;;;;0.43;0.28;;;14.70;1.00;;;;;;5024873;28;20064;-83
2022/11/08 10:26:18;;;;;;;1.75;1.08;;;14.70;44.80;;;;;;5006843;28;20042;-85
2022/11/08 10:28:52;;;;;;;0.10;0.10;;;14.70;13.80;;;;;;5023030;28;20133;-85
2022/11/08 10:31:19;;;;;;;0.00;0.00;;;15.30;1.00;;;;;;5039177;28;20322;-84
2022/11/08 10:33:45;;;;;;;0.45;0.22;;;14.80;1.00;;;;;;5040991;28;20061;-85
2022/11/08 10:36:26;;;;;;;0.00;0.00;;;14.90;1.00;;;;;;5039633;28;20081;-85
2022/11/08 10:38:55;;;;;;;0.20;0.20;;;14.90;1.00;;;;;;5021921;28;20061;-85
2022/11/08 10:42:04;;;;;;;0.05;0.05;;;15.00;1.00;;;;;;5039941;28;20085;-85
2022/11/08 10:44:32;;;;;;;0.17;0.17;;;15.00;1.00;;;;;;5015436;28;20056;-84
2022/11/08 10:47:00;;;;;;;0.20;0.17;;;15.10;1.00;;;;;;5040345;28;20045;-85
2022/11/08 10:49:53;;;;;;;0.45;0.30;;;15.00;1.00;;;;;;5042374;28;20045;-85
2022/11/08 10:52:37;;;;;;;0.15;0.10;;;15.00;1.00;;;;;;5040866;28;20080;-84
2022/11/08 10:55:06;;;;;;;0.20;0.20;;;15.70;1.00;;;;;;5043918;28;20049;-85
2022/11/08 10:57:37;;;;;;;1.48;1.05;;;14.70;1.00;;;;;;5029550;28;20056;-85
2022/11/08 11:00:22;;;;;;;1.15;0.68;;;14.70;1.00;;;;;;5059586;28;20357;-84
2022/11/08 11:02:56;;;;;;;0.13;0.13;;;14.60;1.00;;;;;;5044138;28;20049;-85
2022/11/08 11:05:29;;;;;;;1.38;0.43;;;14.60;1.00;;;;;;5026920;28;20086;-85
2022/11/08 11:08:00;;;;;;;0.75;0.75;;;14.50;1.00;;;;;;5010484;28;20045;-85
2022/11/08 11:10:28;;;;;;;0.25;0.25;;;14.50;1.00;;;;;;5010546;28;20045;-84
2022/11/08 11:13:20;;;;;;;0.00;0.00;;;14.40;1.00;;;;;;5024677;28;20057;-84
2022/11/08 11:15:51;;;;;;;0.00;0.00;;;14.30;47.70;;;;;;5012525;28;20046;-85
2022/11/08 11:18:29;;;;;;;0.00;0.00;;;14.70;1.00;;;;;;5038543;28;20053;-84
2022/11/08 11:21:10;;;;;;;0.10;0.10;;;14.20;99.90;;;;;;5024358;28;20045;-84
2022/11/08 11:23:38;;;;;;;3.00;0.40;;;14.20;99.90;;;;;;5025506;28;20053;-85
2022/11/08 11:26:06;;;;;;;0.20;0.20;;;14.90;99.90;;;;;;5005813;28;20045;-85
2022/11/08 11:28:34;;;;;;;2.85;0.50;;;14.50;99.90;;;;;;5022883;28;20025;-84
2022/11/08 11:31:15;;;;;;;0.10;0.10;;;14.90;1.00;;;;;;5037833;28;20095;-85
2022/11/08 11:33:45;;;;;;;0.00;0.00;;;15.80;1.00;;;;;;5017860;28;20079;-84
2022/11/08 11:36:20;;;;;;;0.32;0.20;;;15.10;99.90;;;;;;5020210;28;20049;-84
2022/11/08 11:39:12;;;;;;;1.05;0.95;;;15.90;99.90;;;;;;5036653;28;20572;-84
2022/11/08 11:41:54;;;;;;;0.00;0.00;;;15.30;99.90;;;;;;5036878;28;20056;-84
2022/11/08 11:44:39;;;;;;;0.00;0.00;;;16.30;99.90;;;;;;5036284;28;20292;-84
2022/11/08 11:47:14;;;;;;;0.00;0.00;;;15.40;99.90;;;;;;4980383;28;20050;-84
2022/11/08 11:49:42;;;;;;;0.00;0.00;;;15.30;99.90;;;;;;5034985;28;20120;-85
2022/11/08 11:52:17;;;;;;;0.00;0.00;;;16.30;99.90;;;;;;5034043;28;20137;-85
2022/11/08 11:54:46;;;;;;;0.00;0.00;;;15.30;99.90;;;;;;5038636;28;20057;-84
2022/11/08 11:57:16;;;;;;;0.20;0.13;;;15.40;99.90;;;;;;5019460;28;20628;-85
2022/11/08 12:00:03;;;;;;;0.00;0.00;;;15.50;99.90;;;;;;5037718;28;20049;-85
2022/11/08 12:02:47;;;;;;;1.27;0.47;;;15.60;99.90;;;;;;5021424;28;20064;-85
2022/11/08 12:05:32;;;;;;;0.22;0.15;;;15.60;99.90;;;;;;5037006;28;20046;-85
2022/11/08 12:08:22;;;;;;;0.03;0.03;;;15.50;99.90;;;;;;5036716;28;20059;-84
2022/11/08 12:10:54;;;;;;;0.00;0.00;;;15.60;99.90;;;;;;5024160;28;20079;-86
2022/11/08 12:13:24;;;;;;;0.00;0.00;;;15.60;99.90;;;;;;5040424;28;20596;-85
2022/11/08 12:16:10;;;;;;;1.33;0.95;;;16.50;99.90;;;;;;5021517;28;20053;-85
2022/11/08 12:18:58;;;;;;;0.10;0.10;;;15.70;99.90;;;;;;5019180;28;20053;-85
2022/11/08 12:21:30;;;;;;;0.00;0.00;;;15.80;99.90;;;;;;5039186;28;20049;-86
2022/11/08 12:24:14;;;;;;;0.10;0.03;;;15.70;99.90;;;;;;5020098;28;20057;-85
2022/11/08 12:27:08;;;;;;;0.38;0.15;;;15.70;99.90;;;;;;5023584;28;20066;-85
2022/11/08 12:29:42;;;;;;;0.05;0.05;;;16.20;99.90;;;;;;5027788;28;20136;-85
2022/11/08 12:32:24;;;;;;;0.40;0.20;;;15.50;99.90;;;;;;5043402;28;20054;-84
2022/11/08 12:35:02;;;;;;;0.28;0.22;;;15.50;99.90;;;;;;5040182;28;20108;-85
2022/11/08 12:37:54;;;;;;;0.05;0.05;;;15.70;99.90;;;;;;5023781;28;20051;-85
2022/11/08 12:40:36;;;;;;;0.57;0.32;;;15.50;99.90;;;;;;5023222;28;20514;-85
2022/11/08 12:43:13;;;;;;;0.63;0.38;;;16.20;99.90;;;;;;5025946;28;20096;-85
2022/11/08 12:46:01;;;;;;;0.00;0.00;;;15.20;99.90;;;;;;5024080;28;20057;-86
2022/11/08 12:48:59;;;;;;;0.35;0.35;;;15.50;99.90;;;;;;5008488;28;20054;-85
2022/11/08 12:51:51;;;;;;;0.88;0.80;;;15.60;99.90;;;;;;5005097;28;20510;-84
2022/11/08 12:54:38;;;;;;;0.00;0.00;;;15.60;99.90;;;;;;5024094;28;20046;-86
2022/11/08 12:57:16;;;;;;;0.00;0.00;;;15.60;99.90;;;;;;5043258;28;20049;-85
2022/11/08 12:59:47;;;;;;;0.65;0.25;;;15.60;99.90;;;;;;5008717;28;20578;-84
2022/11/08 13:02:16;;;;;;;0.00;0.00;;;15.70;99.90;;;;;;5042007;28;20107;-85
2022/11/08 13:04:57;;;;;;;0.38;0.20;;;15.70;99.90;;;;;;5009428;28;20076;-85
2022/11/08 13:07:33;;;;;;;0.10;0.10;;;16.80;99.90;;;;;;5007050;28;20080;-85
2022/11/08 13:10:38;;;;;;;0.00;0.00;;;16.10;99.90;;;;;;5042444;28;20053;-85
2022/11/08 13:13:16;;;;;;;0.03;0.03;;;16.40;99.90;;;;;;5008294;28;20076;-85
2022/11/08 13:16:07;;;;;;;0.17;0.08;;;16.50;99.90;;;;;;5024396;28;20057;-84
2022/11/08 13:18:35;;;;;;;0.47;0.32;;;16.50;99.90;;;;;;5024135;28;20049;-85
2022/11/08 13:21:27;;;;;;;0.10;0.10;;;16.40;99.90;;;;;;5042218;28;20049;-84
2022/11/08 13:24:12;;;;;;;0.10;0.00;;;16.40;99.90;;;;;;5044262;28;20054;-85
2022/11/08 13:26:46;;;;;;;0.63;0.30;;;16.20;99.90;;;;;;5026959;28;20045;-84